Time;durP1;ratioP1;P1;durP2;ratioP2;P2;SDS_P1;SDS_P2;PMS_P1;PMS_P2;Temp;Humidity;BMP_temperature;BMP_pressure;BME280_temperature;BME280_humidity;BME280_pressure;Samples;Min_cycle;Max_cycle;Signal;HPM_P1;HPM_P2
2022/11/09 00:01:21;;;;;;;7.80;1.88;;;13.10;99.90;;;;;;5040322;28;20040;-68
2022/11/09 00:03:47;;;;;;;5.93;1.70;;;14.40;99.90;;;;;;5049679;28;20402;-68
2022/11/09 00:06:13;;;;;;;5.57;1.23;;;13.40;99.90;;;;;;5051058;28;20252;-68
2022/11/09 00:08:40;;;;;;;5.60;1.60;;;13.00;99.90;;;;;;5050501;28;20091;-68
2022/11/09 00:11:09;;;;;;;3.67;1.30;;;13.90;99.90;;;;;;5050486;28;20063;-68
2022/11/09 00:13:36;;;;;;;5.93;1.40;;;13.10;99.90;;;;;;5049307;28;20099;-68
2022/11/09 00:16:02;;;;;;;3.97;1.17;;;13.30;99.90;;;;;;5050994;28;20033;-68
2022/11/09 00:18:28;;;;;;;3.50;1.10;;;14.20;99.90;;;;;;5050823;28;20047;-68
2022/11/09 00:20:54;;;;;;;9.63;2.05;;;13.40;99.90;;;;;;5049605;28;20041;-68
2022/11/09 00:23:20;;;;;;;6.97;1.58;;;13.50;99.90;;;;;;5050180;28;20449;-68
2022/11/09 00:25:46;;;;;;;11.10;1.77;;;14.10;99.90;;;;;;5033086;28;20064;-68
2022/11/09 00:28:12;;;;;;;7.25;1.70;;;13.50;99.90;;;;;;5048943;28;20487;-69
2022/11/09 00:30:39;;;;;;;6.68;1.83;;;13.20;99.90;;;;;;5043376;28;20041;-69
2022/11/09 00:33:04;;;;;;;10.13;2.08;;;13.70;99.90;;;;;;5048926;28;20442;-68
2022/11/09 00:35:30;;;;;;;7.00;1.77;;;14.00;99.90;;;;;;5052100;28;20074;-68
2022/11/09 00:37:55;;;;;;;8.15;1.90;;;14.40;99.90;;;;;;5050251;28;20041;-68
2022/11/09 00:40:21;;;;;;;8.82;2.13;;;14.10;99.90;;;;;;5032150;28;20144;-68
2022/11/09 00:42:47;;;;;;;12.20;2.55;;;13.20;99.90;;;;;;5045180;28;20324;-68
2022/11/09 00:45:12;;;;;;;10.05;2.58;;;14.50;99.90;;;;;;5051401;28;20059;-68
2022/11/09 00:47:38;;;;;;;8.95;1.95;;;13.00;99.90;;;;;;5050438;28;20120;-68
2022/11/09 00:50:04;;;;;;;10.35;1.85;;;14.20;99.90;;;;;;5050311;28;20041;-68
2022/11/09 00:52:30;;;;;;;12.00;2.20;;;13.10;99.90;;;;;;5048683;28;20158;-68
2022/11/09 00:54:55;;;;;;;9.00;2.00;;;13.10;99.90;;;;;;5048859;28;20045;-68
2022/11/09 00:57:21;;;;;;;6.18;1.83;;;14.00;99.90;;;;;;5048950;28;20398;-68
2022/11/09 00:59:47;;;;;;;7.75;2.17;;;14.00;99.90;;;;;;5049065;28;20040;-68
2022/11/09 01:02:12;;;;;;;11.75;2.20;;;13.60;99.90;;;;;;5048662;28;20503;-68
2022/11/09 01:04:38;;;;;;;10.98;2.80;;;12.80;99.90;;;;;;5050206;28;20402;-68
2022/11/09 01:07:06;;;;;;;6.00;2.08;;;13.80;99.90;;;;;;5049960;28;20375;-68
2022/11/09 01:09:31;;;;;;;4.25;1.70;;;13.90;99.90;;;;;;5048914;28;20037;-68
2022/11/09 01:11:57;;;;;;;8.85;2.33;;;13.90;99.90;;;;;;5049851;28;20418;-68
2022/11/09 01:14:23;;;;;;;8.23;2.42;;;13.60;99.90;;;;;;5048907;28;20475;-68
2022/11/09 01:16:48;;;;;;;8.07;2.33;;;14.20;99.90;;;;;;5036486;28;20167;-68
2022/11/09 01:19:14;;;;;;;10.25;2.58;;;13.60;99.90;;;;;;5048607;28;20045;-68
2022/11/09 01:21:40;;;;;;;7.25;2.22;;;14.30;99.90;;;;;;5049799;28;20056;-68
2022/11/09 01:24:05;;;;;;;8.45;2.42;;;14.20;99.90;;;;;;5048830;28;20083;-68
2022/11/09 01:26:32;;;;;;;6.05;2.38;;;13.20;99.90;;;;;;5051134;28;20041;-68
2022/11/09 01:28:58;;;;;;;7.57;1.88;;;13.00;99.90;;;;;;5052509;28;20049;-68
2022/11/09 01:31:24;;;;;;;4.80;1.80;;;13.50;99.90;;;;;;5039684;28;20045;-68
2022/11/09 01:33:50;;;;;;;8.27;1.70;;;14.30;99.90;;;;;;5049858;28;20045;-68
2022/11/09 01:36:21;;;;;;;6.93;1.70;;;13.90;99.90;;;;;;5052983;28;20060;-69
2022/11/09 01:38:47;;;;;;;9.80;2.00;;;13.30;99.90;;;;;;5053598;28;20183;-68
2022/11/09 01:41:25;;;;;;;7.05;1.83;;;13.30;99.90;;;;;;5047909;28;20056;-68
2022/11/09 01:44:05;;;;;;;7.70;2.13;;;13.10;99.90;;;;;;5053406;28;20044;-68
2022/11/09 01:46:49;;;;;;;6.07;1.98;;;14.00;99.90;;;;;;5042075;28;20033;-68
2022/11/09 01:49:30;;;;;;;7.63;1.80;;;12.90;99.90;;;;;;5041542;28;20512;-68
2022/11/09 01:52:08;;;;;;;9.88;2.67;;;12.90;99.90;;;;;;5052156;28;20452;-68
2022/11/09 01:54:43;;;;;;;8.50;2.53;;;12.80;99.90;;;;;;5048234;28;20041;-68
2022/11/09 01:57:13;;;;;;;8.48;2.83;;;14.10;99.90;;;;;;5033562;28;20495;-68
2022/11/09 01:59:43;;;;;;;7.90;2.53;;;13.10;99.90;;;;;;5033215;28;20395;-68
2022/11/09 02:02:09;;;;;;;7.90;1.95;;;12.70;99.90;;;;;;5036164;28;20044;-68
2022/11/09 02:04:52;;;;;;;9.07;2.30;;;13.50;99.90;;;;;;5053111;28;20064;-68
2022/11/09 02:07:20;;;;;;;4.60;2.03;;;12.80;99.90;;;;;;5052578;28;20083;-68
2022/11/09 02:10:08;;;;;;;11.95;2.95;;;14.50;99.90;;;;;;5052686;28;20132;-68
2022/11/09 02:12:34;;;;;;;4.70;2.13;;;14.10;99.90;;;;;;5051192;28;20049;-68
2022/11/09 02:15:07;;;;;;;8.75;2.45;;;13.20;99.90;;;;;;5051689;28;20068;-68
2022/11/09 02:17:33;;;;;;;10.60;2.33;;;14.20;99.90;;;;;;5036272;28;20053;-68
2022/11/09 02:19:59;;;;;;;10.55;2.72;;;13.50;99.90;;;;;;5052644;28;20037;-68
2022/11/09 02:22:25;;;;;;;9.05;2.15;;;13.10;99.90;;;;;;5048738;28;20797;-68
2022/11/09 02:24:51;;;;;;;10.23;2.22;;;13.20;99.90;;;;;;5032899;28;20038;-68
2022/11/09 02:27:18;;;;;;;15.50;3.33;;;14.20;99.90;;;;;;5033146;28;20087;-68
2022/11/09 02:29:47;;;;;;;7.55;2.45;;;12.80;99.90;;;;;;5051333;28;20035;-68
2022/11/09 02:32:18;;;;;;;7.95;2.33;;;13.40;99.90;;;;;;5053828;28;20498;-68
2022/11/09 02:34:44;;;;;;;11.45;2.58;;;13.10;99.90;;;;;;5052530;28;20044;-68
2022/11/09 02:37:09;;;;;;;11.13;2.90;;;12.80;99.90;;;;;;5050483;28;20406;-68
2022/11/09 02:39:35;;;;;;;10.90;2.58;;;13.00;99.90;;;;;;5033250;28;20065;-68
2022/11/09 02:42:07;;;;;;;12.10;2.67;;;12.80;99.90;;;;;;5051973;28;20594;-68
2022/11/09 02:44:38;;;;;;;7.60;2.25;;;13.10;99.90;;;;;;5053268;28;20308;-68
2022/11/09 02:47:03;;;;;;;14.18;3.00;;;13.00;99.90;;;;;;5051351;28;20036;-68
2022/11/09 02:49:29;;;;;;;9.13;2.33;;;13.10;99.90;;;;;;5051540;28;20090;-68
2022/11/09 02:51:54;;;;;;;7.53;2.38;;;14.20;99.90;;;;;;5052449;28;20406;-68
2022/11/09 02:54:20;;;;;;;11.88;2.70;;;13.20;99.90;;;;;;5051880;28;20037;-68
2022/11/09 02:56:45;;;;;;;11.30;2.05;;;14.50;99.90;;;;;;5052382;28;20039;-68
2022/11/09 02:59:11;;;;;;;7.60;2.40;;;13.90;99.90;;;;;;5050134;28;20033;-68
2022/11/09 03:01:36;;;;;;;10.02;3.10;;;13.00;99.90;;;;;;5051487;28;20048;-69
2022/11/09 03:04:02;;;;;;;8.70;2.78;;;14.40;99.90;;;;;;5051871;28;20033;-68
2022/11/09 03:06:34;;;;;;;6.70;2.15;;;13.10;99.90;;;;;;5051832;28;20052;-68
2022/11/09 03:09:04;;;;;;;6.65;2.15;;;14.50;99.90;;;;;;5049507;28;20044;-69
2022/11/09 03:11:30;;;;;;;8.43;2.45;;;14.50;99.90;;;;;;5034525;28;20061;-69
2022/11/09 03:13:56;;;;;;;8.32;2.30;;;13.20;99.90;;;;;;5051579;28;20418;-68
2022/11/09 03:16:22;;;;;;;10.30;2.40;;;13.60;99.90;;;;;;5051651;28;20037;-69
2022/11/09 03:18:48;;;;;;;10.02;2.80;;;13.20;99.90;;;;;;5050168;28;20040;-69
2022/11/09 03:21:13;;;;;;;9.43;2.35;;;13.20;99.90;;;;;;5051703;28;20502;-69
2022/11/09 03:23:39;;;;;;;16.25;2.90;;;13.90;99.90;;;;;;5051151;28;20033;-68
2022/11/09 03:26:04;;;;;;;15.80;3.20;;;14.40;99.90;;;;;;5032074;28;20041;-68
2022/11/09 03:28:30;;;;;;;12.43;2.38;;;15.20;99.90;;;;;;5044099;28;20044;-68
2022/11/09 03:30:56;;;;;;;11.48;2.55;;;14.30;99.90;;;;;;5051499;28;20076;-68
2022/11/09 03:33:21;;;;;;;14.55;2.63;;;14.20;99.90;;;;;;5051497;28;20425;-68
2022/11/09 03:35:47;;;;;;;12.02;2.63;;;13.10;99.90;;;;;;5051395;28;20554;-68
2022/11/09 03:38:12;;;;;;;8.90;2.10;;;14.20;99.90;;;;;;5049704;28;20080;-69
2022/11/09 03:40:38;;;;;;;9.48;2.42;;;13.80;99.90;;;;;;5047135;28;20070;-68
2022/11/09 03:43:04;;;;;;;11.15;2.22;;;14.20;99.90;;;;;;5041403;28;20041;-68
2022/11/09 03:45:30;;;;;;;8.52;2.63;;;13.80;99.90;;;;;;5051273;28;20367;-68
2022/11/09 03:47:59;;;;;;;10.13;2.25;;;14.00;99.90;;;;;;5049798;28;20076;-69
2022/11/09 03:50:29;;;;;;;7.15;1.98;;;14.20;99.90;;;;;;5045115;28;20036;-68
2022/11/09 03:52:56;;;;;;;10.00;2.13;;;14.30;99.90;;;;;;5032521;28;20076;-68
2022/11/09 03:55:22;;;;;;;13.95;2.67;;;13.20;99.90;;;;;;5031967;28;20120;-68
2022/11/09 03:57:47;;;;;;;8.88;2.10;;;13.40;99.90;;;;;;5050113;28;20095;-68
2022/11/09 04:00:16;;;;;;;8.57;2.13;;;13.50;99.90;;;;;;5050980;28;20040;-68
2022/11/09 04:02:41;;;;;;;10.93;2.28;;;13.00;99.90;;;;;;5050862;28;20029;-68
2022/11/09 04:05:08;;;;;;;10.00;2.05;;;14.40;99.90;;;;;;5050914;28;20432;-68
2022/11/09 04:07:33;;;;;;;7.75;2.10;;;13.00;99.90;;;;;;5050719;28;20098;-68
2022/11/09 04:09:59;;;;;;;16.90;3.85;;;13.00;99.90;;;;;;5050529;28;20044;-68
2022/11/09 04:12:24;;;;;;;10.45;2.58;;;13.10;99.90;;;;;;5049375;28;20135;-67
2022/11/09 04:14:50;;;;;;;11.82;2.45;;;14.30;99.90;;;;;;5049852;28;20036;-67
2022/11/09 04:17:16;;;;;;;13.90;2.53;;;13.60;99.90;;;;;;5050637;28;20044;-68
2022/11/09 04:19:41;;;;;;;17.70;3.40;;;14.30;99.90;;;;;;5049944;28;20076;-68
2022/11/09 04:22:07;;;;;;;13.10;2.65;;;13.20;99.90;;;;;;5044993;28;20057;-68
2022/11/09 04:24:32;;;;;;;14.35;2.72;;;13.00;99.90;;;;;;5035688;28;20040;-68
2022/11/09 04:26:58;;;;;;;13.30;2.47;;;13.00;99.90;;;;;;5050627;28;20044;-68
2022/11/09 04:29:24;;;;;;;13.38;2.70;;;14.20;99.90;;;;;;5050125;28;20044;-67
2022/11/09 04:31:50;;;;;;;14.75;3.00;;;13.20;99.90;;;;;;5049733;28;20360;-68
2022/11/09 04:34:16;;;;;;;5.30;1.98;;;14.30;99.90;;;;;;5050206;28;20507;-68
2022/11/09 04:36:41;;;;;;;9.75;1.88;;;13.00;99.90;;;;;;5050647;28;20374;-68
2022/11/09 04:39:07;;;;;;;14.63;2.33;;;13.10;99.90;;;;;;5050567;28;20045;-68
2022/11/09 04:41:33;;;;;;;5.55;2.10;;;14.30;99.90;;;;;;5045791;28;20052;-68
2022/11/09 04:43:58;;;;;;;6.13;1.77;;;13.70;99.90;;;;;;5038490;28;20045;-68
2022/11/09 04:46:24;;;;;;;12.93;2.28;;;14.30;99.90;;;;;;5049040;28;20144;-68
2022/11/09 04:48:49;;;;;;;7.15;2.47;;;14.00;99.90;;;;;;5030672;28;20041;-68
2022/11/09 04:51:15;;;;;;;10.75;2.67;;;12.90;99.90;;;;;;5034785;28;20522;-68
2022/11/09 04:53:41;;;;;;;10.85;2.28;;;13.30;99.90;;;;;;5049207;28;20087;-68
2022/11/09 04:56:07;;;;;;;8.98;2.60;;;14.20;99.90;;;;;;5050216;28;20045;-70
2022/11/09 04:58:33;;;;;;;9.95;2.45;;;14.30;99.90;;;;;;5050006;28;20072;-68
2022/11/09 05:01:10;;;;;;;10.90;2.90;;;13.80;99.90;;;;;;5049102;28;20503;-68
2022/11/09 05:03:36;;;;;;;12.05;2.92;;;13.10;99.90;;;;;;5034333;28;20048;-68
2022/11/09 05:06:30;;;;;;;12.48;2.60;;;14.30;99.90;;;;;;5054347;28;20033;-68
2022/11/09 05:08:47;;;;;;;14.70;3.35;;;14.40;99.90;;;;;;5053246;28;20041;-68
2022/11/09 05:11:13;;;;;;;8.68;1.92;;;13.00;99.90;;;;;;5054097;28;20630;-68
2022/11/09 05:13:38;;;;;;;11.45;2.47;;;13.10;99.90;;;;;;5044821;28;20033;-68
2022/11/09 05:16:04;;;;;;;16.65;3.35;;;13.70;99.90;;;;;;5049802;28;20144;-68
2022/11/09 05:18:29;;;;;;;14.98;2.70;;;13.50;99.90;;;;;;5053681;28;20517;-68
2022/11/09 05:20:58;;;;;;;13.10;2.78;;;13.30;99.90;;;;;;5051321;28;20041;-67
2022/11/09 05:26:08;;;;;;;14.65;2.85;;;13.90;99.90;;;;;;5054042;28;20193;-68
2022/11/09 05:28:33;;;;;;;11.52;2.88;;;12.60;99.90;;;;;;5053600;28;20436;-68
2022/11/09 05:30:59;;;;;;;12.02;2.15;;;12.80;99.90;;;;;;5048390;28;20041;-68
2022/11/09 05:33:24;;;;;;;10.00;2.05;;;13.90;99.90;;;;;;5051972;28;20099;-68
2022/11/09 05:35:50;;;;;;;13.73;2.97;;;12.60;99.90;;;;;;5053285;28;20052;-68
2022/11/09 05:38:15;;;;;;;22.35;2.67;;;12.70;99.90;;;;;;5055012;28;20041;-68
2022/11/09 05:40:41;;;;;;;12.80;2.70;;;13.20;99.90;;;;;;5048201;28;20045;-68
2022/11/09 05:43:06;;;;;;;11.55;2.60;;;13.10;99.90;;;;;;5033731;28;20048;-68
2022/11/09 05:45:32;;;;;;;10.88;2.20;;;13.90;99.90;;;;;;5038289;28;20511;-68
2022/11/09 05:47:57;;;;;;;11.20;2.38;;;13.80;99.90;;;;;;5042227;28;20052;-68
2022/11/09 05:50:23;;;;;;;6.03;1.75;;;13.70;99.90;;;;;;5033948;28;20046;-69
2022/11/09 05:52:48;;;;;;;13.63;2.95;;;13.10;99.90;;;;;;5050749;28;20037;-68
2022/11/09 05:55:14;;;;;;;9.50;2.58;;;13.90;99.90;;;;;;5052925;28;20043;-68
2022/11/09 05:57:40;;;;;;;6.03;1.80;;;12.70;99.90;;;;;;5053724;28;20045;-68
2022/11/09 06:00:06;;;;;;;7.85;2.33;;;12.80;99.90;;;;;;5052891;28;20041;-68
2022/11/09 06:02:32;;;;;;;13.77;2.40;;;13.20;99.90;;;;;;5052885;28;20040;-68
2022/11/09 06:04:58;;;;;;;11.02;2.40;;;14.10;99.90;;;;;;5049032;28;20483;-68
2022/11/09 06:07:23;;;;;;;11.68;2.70;;;13.60;99.90;;;;;;5045330;28;20091;-68
2022/11/09 06:09:49;;;;;;;16.73;2.45;;;13.70;99.90;;;;;;5038874;28;20442;-69
2022/11/09 06:12:15;;;;;;;6.60;1.88;;;12.50;99.90;;;;;;5045619;28;20498;-68
2022/11/09 06:14:40;;;;;;;7.35;1.92;;;13.30;99.90;;;;;;5048768;28;20041;-68
2022/11/09 06:17:06;;;;;;;8.82;3.33;;;12.70;99.90;;;;;;5044987;28;20056;-68
2022/11/09 06:19:31;;;;;;;17.08;3.08;;;12.40;99.90;;;;;;5039049;28;20036;-68
2022/11/09 06:21:57;;;;;;;15.98;2.20;;;13.30;99.90;;;;;;5047651;28;20051;-68
2022/11/09 06:24:23;;;;;;;13.88;1.73;;;12.40;99.90;;;;;;5054065;28;20041;-68
2022/11/09 06:26:48;;;;;;;7.72;2.15;;;12.40;99.90;;;;;;5048274;28;20044;-68
2022/11/09 06:29:14;;;;;;;9.90;2.05;;;12.60;99.90;;;;;;5052703;28;20395;-68
2022/11/09 06:31:39;;;;;;;15.35;2.30;;;12.20;99.90;;;;;;5048536;28;20037;-68
2022/11/09 06:34:05;;;;;;;11.68;4.13;;;13.40;99.90;;;;;;5050669;28;20520;-68
2022/11/09 06:36:30;;;;;;;7.78;2.25;;;13.40;99.90;;;;;;5047742;28;20037;-68
2022/11/09 06:38:56;;;;;;;10.75;2.28;;;12.20;99.90;;;;;;5050357;28;20064;-68
2022/11/09 06:41:21;;;;;;;9.30;2.17;;;12.10;99.90;;;;;;5050000;28;20067;-68
2022/11/09 06:43:47;;;;;;;10.40;2.63;;;12.70;99.90;;;;;;5050499;28;20569;-68
2022/11/09 06:46:16;;;;;;;7.43;1.98;;;13.40;99.90;;;;;;5044681;28;20029;-68
2022/11/09 06:48:42;;;;;;;8.20;2.05;;;12.50;99.90;;;;;;5045195;28;20090;-68
2022/11/09 06:51:09;;;;;;;15.20;2.17;;;15.80;99.90;;;;;;5030434;28;20037;-69
2022/11/09 06:53:36;;;;;;;9.60;2.00;;;13.40;99.90;;;;;;5045832;28;20120;-68
2022/11/09 06:56:03;;;;;;;13.57;1.98;;;13.60;99.90;;;;;;5046902;28;20051;-68
2022/11/09 06:58:29;;;;;;;12.30;2.33;;;12.50;99.90;;;;;;5050483;28;20036;-67
2022/11/09 07:00:55;;;;;;;10.00;2.13;;;13.10;99.90;;;;;;5049587;28;20056;-68
2022/11/09 07:03:21;;;;;;;7.97;1.92;;;13.20;99.90;;;;;;5044596;28;20045;-68
2022/11/09 07:05:49;;;;;;;11.20;2.20;;;12.30;99.90;;;;;;5049028;28;20100;-75
2022/11/09 07:08:15;;;;;;;6.22;1.80;;;13.40;99.90;;;;;;5046905;28;20071;-62
2022/11/09 07:10:41;;;;;;;5.68;1.80;;;12.70;99.90;;;;;;5049560;28;20091;-62
2022/11/09 07:13:07;;;;;;;4.47;1.33;;;12.30;99.90;;;;;;5051973;28;20037;-63
2022/11/09 07:15:34;;;;;;;5.30;2.03;;;13.00;99.90;;;;;;5050859;28;20078;-64
2022/11/09 07:18:02;;;;;;;6.70;1.70;;;13.50;99.90;;;;;;5046401;28;20055;-63
2022/11/09 07:20:28;;;;;;;6.03;1.92;;;13.60;99.90;;;;;;5052203;28;20041;-63
2022/11/09 07:22:53;;;;;;;9.90;2.38;;;13.70;99.90;;;;;;5048884;28;20040;-63
2022/11/09 07:25:19;;;;;;;10.25;2.10;;;13.00;99.90;;;;;;5050581;28;20029;-63
2022/11/09 07:27:45;;;;;;;9.00;2.47;;;12.40;99.90;;;;;;5047085;28;20221;-63
2022/11/09 07:30:11;;;;;;;10.38;2.10;;;12.40;99.90;;;;;;5046940;28;20040;-63
2022/11/09 07:32:38;;;;;;;9.32;2.47;;;13.80;99.90;;;;;;5051347;28;20033;-63
2022/11/09 07:35:04;;;;;;;11.77;2.72;;;13.00;99.90;;;;;;5051085;28;20037;-63
2022/11/09 07:37:30;;;;;;;10.60;2.78;;;13.60;99.90;;;;;;5043733;28;20382;-63
2022/11/09 07:39:56;;;;;;;10.32;2.80;;;13.80;99.90;;;;;;5045272;28;20044;-63
2022/11/09 07:42:22;;;;;;;6.57;2.10;;;12.90;99.90;;;;;;5042134;28;20049;-64
2022/11/09 07:44:48;;;;;;;7.28;2.35;;;12.60;99.90;;;;;;5046483;28;20041;-63
2022/11/09 07:47:16;;;;;;;4.18;1.95;;;13.60;99.90;;;;;;5045053;28;20044;-62
2022/11/09 07:49:41;;;;;;;5.55;1.83;;;13.50;99.90;;;;;;5051046;28;20410;-63
2022/11/09 07:52:07;;;;;;;5.80;1.73;;;13.80;99.90;;;;;;5051896;28;20033;-63
2022/11/09 07:54:32;;;;;;;8.85;2.38;;;12.90;99.90;;;;;;5046699;28;20112;-63
2022/11/09 07:56:58;;;;;;;10.77;2.53;;;12.60;99.90;;;;;;5049548;28;20094;-63
2022/11/09 07:59:24;;;;;;;7.53;2.53;;;12.70;99.90;;;;;;5049337;28;20458;-63
2022/11/09 08:01:49;;;;;;;10.30;2.65;;;12.90;99.90;;;;;;5052023;28;20410;-63
2022/11/09 08:04:15;;;;;;;9.27;2.30;;;14.10;99.90;;;;;;5052006;28;20132;-63
2022/11/09 08:06:40;;;;;;;10.70;2.58;;;14.20;99.90;;;;;;5051627;28;20064;-63
2022/11/09 08:09:06;;;;;;;8.60;2.20;;;13.50;99.90;;;;;;5047755;28;20071;-63
2022/11/09 08:11:32;;;;;;;13.82;3.13;;;14.30;99.90;;;;;;5044499;28;20354;-63
2022/11/09 08:13:57;;;;;;;9.88;2.95;;;13.80;99.90;;;;;;5045474;28;20045;-62
2022/11/09 08:16:23;;;;;;;5.65;2.05;;;14.40;99.90;;;;;;5044719;28;20033;-62
2022/11/09 08:18:50;;;;;;;14.65;3.15;;;13.30;99.90;;;;;;5038739;28;20064;-63
2022/11/09 08:21:16;;;;;;;4.60;1.80;;;14.50;99.90;;;;;;5029507;28;20603;-62
2022/11/09 08:23:41;;;;;;;14.15;3.03;;;13.80;99.90;;;;;;5035797;28;20518;-63
2022/11/09 08:26:07;;;;;;;6.43;1.95;;;13.30;99.90;;;;;;5044221;28;20067;-63
2022/11/09 08:28:33;;;;;;;8.60;2.50;;;13.50;99.90;;;;;;5045893;28;20040;-63
2022/11/09 08:31:02;;;;;;;9.93;2.88;;;13.90;99.90;;;;;;5042855;28;20068;-63
2022/11/09 08:33:29;;;;;;;13.05;3.00;;;14.50;99.90;;;;;;5041927;28;20038;-63
2022/11/09 08:35:55;;;;;;;8.85;2.33;;;14.10;99.90;;;;;;5048240;28;20064;-63
2022/11/09 08:38:21;;;;;;;9.98;3.03;;;13.80;99.90;;;;;;5049837;28;20526;-63
2022/11/09 08:40:47;;;;;;;11.10;2.47;;;14.30;99.90;;;;;;5046172;28;20506;-63
2022/11/09 08:43:12;;;;;;;16.67;3.17;;;14.00;99.90;;;;;;5049785;28;20051;-62
2022/11/09 08:45:40;;;;;;;8.88;2.65;;;14.20;99.90;;;;;;5044099;28;20049;-63
2022/11/09 08:48:06;;;;;;;11.13;2.65;;;13.10;99.90;;;;;;5049363;28;20414;-62
2022/11/09 08:50:34;;;;;;;11.13;2.63;;;13.30;99.90;;;;;;5048293;28;20036;-62
2022/11/09 08:53:01;;;;;;;10.45;2.45;;;13.10;99.90;;;;;;5048818;28;20089;-63
2022/11/09 08:55:27;;;;;;;11.70;2.35;;;14.30;99.90;;;;;;5047358;28;20113;-62
2022/11/09 08:57:57;;;;;;;6.68;1.90;;;13.50;99.90;;;;;;5050887;28;20057;-62
2022/11/09 09:00:23;;;;;;;5.47;1.95;;;13.70;99.90;;;;;;5047084;28;20037;-63
2022/11/09 09:02:49;;;;;;;8.70;2.10;;;13.50;99.90;;;;;;5051005;28;20075;-63
2022/11/09 09:05:15;;;;;;;10.88;2.13;;;13.40;99.90;;;;;;5049938;28;20387;-63
2022/11/09 09:07:41;;;;;;;7.28;2.00;;;13.80;99.90;;;;;;5050353;28;20068;-63
2022/11/09 09:10:07;;;;;;;8.20;2.25;;;13.70;99.90;;;;;;5048821;28;20075;-63
2022/11/09 09:12:53;;;;;;;10.45;2.47;;;14.90;99.90;;;;;;5041670;28;20467;-63
2022/11/09 09:15:20;;;;;;;16.50;2.92;;;14.90;99.90;;;;;;5043981;28;20098;-63
2022/11/09 09:17:45;;;;;;;6.85;2.22;;;14.10;99.90;;;;;;5049332;28;20037;-63
2022/11/09 09:20:23;;;;;;;9.82;2.50;;;14.10;99.90;;;;;;5046003;28;20048;-63
2022/11/09 09:22:49;;;;;;;11.40;2.20;;;14.70;99.90;;;;;;5045506;28;20029;-63
2022/11/09 09:25:39;;;;;;;12.25;2.90;;;14.20;99.90;;;;;;5043023;28;20034;-63
2022/11/09 09:28:04;;;;;;;12.43;2.05;;;15.10;99.90;;;;;;5049921;28;20702;-63
2022/11/09 09:30:53;;;;;;;9.45;1.98;;;14.00;99.90;;;;;;5048426;28;20036;-63
2022/11/09 09:33:18;;;;;;;9.95;2.30;;;14.50;99.90;;;;;;5049822;28;20029;-63
2022/11/09 09:35:44;;;;;;;8.57;1.98;;;15.30;99.90;;;;;;5047896;28;20086;-63
2022/11/09 09:38:09;;;;;;;10.18;2.40;;;14.30;99.90;;;;;;5050086;28;20128;-63
2022/11/09 09:41:01;;;;;;;10.73;2.85;;;15.40;99.90;;;;;;5048776;28;21837;-62
2022/11/09 09:43:33;;;;;;;8.27;2.70;;;15.40;99.90;;;;;;5038934;28;20025;-63
2022/11/09 09:46:01;;;;;;;4.53;2.20;;;14.60;99.90;;;;;;5048487;28;20410;-63
2022/11/09 09:48:45;;;;;;;10.63;2.67;;;15.40;99.90;;;;;;5051706;28;20094;-63
2022/11/09 09:51:26;;;;;;;15.00;2.50;;;15.20;99.90;;;;;;5050846;28;20115;-63
2022/11/09 09:54:19;;;;;;;10.45;1.95;;;14.20;99.90;;;;;;5054230;28;20037;-63
2022/11/09 09:56:47;;;;;;;9.43;2.05;;;14.80;99.90;;;;;;5042372;28;20033;-64
2022/11/09 09:59:23;;;;;;;8.40;1.98;;;15.10;99.90;;;;;;5049170;28;20433;-63
2022/11/09 10:01:49;;;;;;;6.22;2.40;;;15.20;99.90;;;;;;5044098;28;20037;-63
2022/11/09 10:04:35;;;;;;;10.57;2.35;;;15.20;99.90;;;;;;5048315;28;20120;-63
2022/11/09 10:07:32;;;;;;;10.50;2.58;;;15.20;99.90;;;;;;5033245;28;20100;-65
2022/11/09 10:10:22;;;;;;;6.50;1.90;;;14.50;99.90;;;;;;5048474;28;20402;-63
2022/11/09 10:13:03;;;;;;;10.95;2.53;;;15.20;99.90;;;;;;5051421;28;20045;-63
2022/11/09 10:16:01;;;;;;;11.45;2.75;;;14.70;99.90;;;;;;5040224;28;20045;-63
2022/11/09 10:19:06;;;;;;;4.70;2.58;;;14.30;99.90;;;;;;5050065;28;20041;-62
2022/11/09 10:22:03;;;;;;;13.90;2.95;;;14.20;99.90;;;;;;5049489;28;20048;-63
2022/11/09 10:25:06;;;;;;;10.27;2.70;;;15.40;99.90;;;;;;5036564;28;20038;-64
2022/11/09 10:27:36;;;;;;;6.50;2.00;;;14.70;99.90;;;;;;5036061;28;20575;-63
2022/11/09 10:30:15;;;;;;;8.27;2.20;;;14.90;99.90;;;;;;5049760;28;20033;-63
2022/11/09 10:32:44;;;;;;;10.82;3.22;;;15.40;99.90;;;;;;5051954;28;20037;-63
2022/11/09 10:35:10;;;;;;;12.23;2.70;;;15.70;99.90;;;;;;5054292;28;20490;-63
2022/11/09 10:37:45;;;;;;;10.90;2.80;;;14.50;99.90;;;;;;5052809;28;20048;-63
2022/11/09 10:40:51;;;;;;;12.90;2.55;;;14.30;99.90;;;;;;5053578;28;20108;-63
2022/11/09 10:43:33;;;;;;;9.15;2.38;;;14.40;99.90;;;;;;5046455;28;20411;-63
2022/11/09 10:46:26;;;;;;;7.70;3.05;;;15.10;99.90;;;;;;5049688;28;20124;-63
2022/11/09 10:48:54;;;;;;;13.23;2.42;;;14.70;99.90;;;;;;5037873;28;20706;-63
2022/11/09 10:51:42;;;;;;;11.75;2.65;;;15.00;99.90;;;;;;5049727;28;20055;-64
2022/11/09 10:54:19;;;;;;;10.77;2.40;;;14.30;99.90;;;;;;5048050;28;20053;-63
2022/11/09 10:56:49;;;;;;;9.40;2.47;;;14.70;99.90;;;;;;5048779;28;20505;-63
2022/11/09 10:59:35;;;;;;;14.55;2.33;;;15.20;99.90;;;;;;5051486;28;20043;-63
2022/11/09 11:02:00;;;;;;;8.45;2.65;;;14.30;99.90;;;;;;5045530;28;20045;-63
2022/11/09 11:04:27;;;;;;;6.25;2.22;;;14.30;99.90;;;;;;5051031;28;20036;-63
2022/11/09 11:07:18;;;;;;;10.15;2.45;;;15.00;99.90;;;;;;5047933;28;20112;-64
2022/11/09 11:10:15;;;;;;;9.82;2.60;;;14.30;99.90;;;;;;5047772;28;20037;-64
2022/11/09 11:12:56;;;;;;;5.70;2.00;;;14.20;99.90;;;;;;5043469;28;20037;-64
2022/11/09 11:15:25;;;;;;;10.00;2.67;;;14.80;99.90;;;;;;5047170;28;20044;-64
2022/11/09 11:18:00;;;;;;;17.48;2.97;;;14.20;99.90;;;;;;5047980;28;20041;-65
2022/11/09 11:20:31;;;;;;;14.65;2.95;;;15.00;99.90;;;;;;5050429;28;20045;-64
2022/11/09 11:23:24;;;;;;;9.88;2.58;;;15.00;99.90;;;;;;5047894;28;20048;-64
2022/11/09 11:25:57;;;;;;;7.85;2.50;;;14.50;99.90;;;;;;5050379;28;20128;-64
2022/11/09 11:28:32;;;;;;;10.88;2.72;;;13.90;99.90;;;;;;5052396;28;20044;-64
2022/11/09 11:31:17;;;;;;;9.68;2.80;;;14.80;99.90;;;;;;5051145;28;20041;-64
2022/11/09 11:34:05;;;;;;;20.10;2.92;;;14.70;99.90;;;;;;5043866;28;20037;-64
2022/11/09 11:36:54;;;;;;;16.77;3.40;;;14.20;99.90;;;;;;5044545;28;20092;-63
2022/11/09 11:39:42;;;;;;;9.85;2.25;;;14.60;99.90;;;;;;5029222;28;20103;-64
2022/11/09 11:42:29;;;;;;;6.22;2.20;;;13.40;99.90;;;;;;5046423;28;20510;-63
2022/11/09 11:45:11;;;;;;;7.82;2.28;;;13.90;99.90;;;;;;5047830;28;20041;-64
2022/11/09 11:47:54;;;;;;;5.45;1.80;;;13.50;99.90;;;;;;5043696;28;20033;-65
2022/11/09 11:50:50;;;;;;;5.15;1.50;;;13.30;99.90;;;;;;5046307;28;20033;-64
2022/11/09 11:53:58;;;;;;;10.40;2.25;;;14.10;99.90;;;;;;5043374;28;20076;-64
2022/11/09 11:56:41;;;;;;;12.25;2.70;;;13.30;99.90;;;;;;5045450;28;20048;-64
2022/11/09 12:00:01;;;;;;;5.18;2.33;;;13.80;99.90;;;;;;5047999;28;20068;-64
2022/11/09 12:03:00;;;;;;;3.47;1.83;;;14.50;99.90;;;;;;5046239;28;20098;-64
2022/11/09 12:05:47;;;;;;;4.13;1.40;;;14.30;99.90;;;;;;5042319;28;20040;-64
2022/11/09 12:09:17;;;;;;;4.90;1.15;;;13.40;99.90;;;;;;5052800;28;20040;-64
2022/11/09 12:12:09;;;;;;;2.83;1.05;;;13.60;99.90;;;;;;5030671;28;20052;-63
2022/11/09 12:15:12;;;;;;;2.90;1.00;;;13.90;99.90;;;;;;5042450;28;20607;-64
2022/11/09 12:17:56;;;;;;;1.20;0.80;;;13.90;99.90;;;;;;5043180;28;20470;-64
2022/11/09 12:20:49;;;;;;;1.42;0.80;;;13.50;99.90;;;;;;5048403;28;20052;-64
2022/11/09 12:23:51;;;;;;;3.03;1.15;;;13.90;99.90;;;;;;5020019;28;20120;-64
2022/11/09 12:26:45;;;;;;;5.05;1.45;;;12.70;99.90;;;;;;5045910;28;20505;-65
2022/11/09 12:29:20;;;;;;;1.58;0.93;;;13.20;99.90;;;;;;5046806;28;20120;-64
2022/11/09 12:32:13;;;;;;;4.63;1.20;;;12.80;99.90;;;;;;5046422;28;20707;-64
2022/11/09 12:35:14;;;;;;;2.80;1.20;;;14.00;99.90;;;;;;5058896;28;20044;-64
2022/11/09 12:37:49;;;;;;;3.97;1.30;;;12.50;99.90;;;;;;5031908;28;20099;-64
2022/11/09 12:41:00;;;;;;;3.10;1.00;;;12.50;99.90;;;;;;5048485;28;20517;-64
2022/11/09 12:43:49;;;;;;;4.70;1.50;;;13.80;99.90;;;;;;5046611;28;20050;-64
2022/11/09 12:46:17;;;;;;;2.45;1.10;;;12.80;99.90;;;;;;5050818;28;20429;-65
2022/11/09 12:48:45;;;;;;;3.40;1.20;;;13.00;99.90;;;;;;5046437;28;20112;-64
2022/11/09 12:51:11;;;;;;;7.38;1.60;;;12.90;99.90;;;;;;5047307;28;20041;-64
2022/11/09 12:53:37;;;;;;;6.07;1.58;;;14.00;99.90;;;;;;5048134;28;20307;-64
2022/11/09 12:56:12;;;;;;;6.72;1.65;;;14.20;99.90;;;;;;5044227;28;20048;-64
2022/11/09 12:58:38;;;;;;;9.48;1.92;;;13.40;99.90;;;;;;5047756;28;20052;-64
2022/11/09 13:01:09;;;;;;;8.88;2.08;;;13.20;99.90;;;;;;5046790;28;20487;-64
2022/11/09 13:03:51;;;;;;;12.00;2.35;;;13.30;99.90;;;;;;5049008;28;20044;-64
2022/11/09 13:06:24;;;;;;;10.38;2.33;;;14.30;99.90;;;;;;5037643;28;20029;-64